May 17, 2022

Time Code Weather Temp. Visibility Clouds Wind METAR/SPECI
8:20 am
V
63 °F 6¼ mi+ - 160°   160° 3 kt METAR EDDG 170620Z 16003KT 120V220 CAVOK 17/14 Q1020 NOSIG
7:50 am
V
59 °F 6¼ mi+ - Var   Var 2 kt METAR EDDG 170550Z VRB02KT CAVOK 15/13 Q1020 NOSIG
7:20 am
V
57 °F 6¼ mi+ - 130°   130° 2 kt METAR EDDG 170520Z 13002KT CAVOK 14/12 Q1020 NOSIG
6:50 am
V
55 °F 6¼ mi+ - Var   Var 2 kt METAR EDDG 170450Z VRB02KT CAVOK 13/13 Q1020 NOSIG
6:20 am
M
50 °F 4⅜ mi - Var   Var 1 kt METAR EDDG 170420Z VRB01KT 7000 0900NW R25/P2000N BCFG NSC 10/10 Q1020 TEMPO 4000
5:50 am
V
50 °F 5 mi - 130°   130° 1 kt METAR EDDG 170350Z 13001KT 8000 0900NW R25/1600D BCFG NSC 10/10 Q1020 TEMPO 4000
5:20 am
V
50 °F 5 mi - Var   000° 0 kt METAR EDDG 170320Z 00000KT 8000 0700NW R25/0800U BCFG NSC 10/10 Q1020 TEMPO 4000
4:50 am
V
50 °F 6¼ mi+ - Var   Var 1 kt METAR EDDG 170250Z VRB01KT 9999 0700NW R25/0650D BCFG NSC 10/10 Q1019 NOSIG
4:20 am
V
52 °F 6¼ mi+ - 140°   140° 1 kt METAR EDDG 170220Z 14001KT 9999 0900NW R25/0800D BCFG NSC 11/11 Q1019 NOSIG
3:50 am
V
52 °F 6¼ mi+ - Var   Var 1 kt METAR EDDG 170150Z VRB01KT CAVOK 11/11 Q1020 NOSIG
3:20 am
V
54 °F 6¼ mi+ - Var   Var 2 kt METAR EDDG 170120Z VRB02KT 9999 FEW048 12/12 Q1019 NOSIG
2:50 am
V
54 °F 6¼ mi+ - Var   Var 2 kt METAR EDDG 170050Z VRB02KT 9999 SCT048 12/12 Q1019 NOSIG
2:20 am
V
54 °F 6¼ mi+ - Var   Var 2 kt METAR EDDG 170020Z VRB02KT 9999 SCT048 12/12 Q1019 NOSIG
1:50 am
V
54 °F 6¼ mi+ - Var   Var 1 kt METAR EDDG 162350Z VRB01KT CAVOK 12/12 Q1020 NOSIG
1:20 am
V
55 °F 6¼ mi+ - Var   Var 1 kt METAR EDDG 162320Z VRB01KT CAVOK 13/12 Q1019 NOSIG
12:50 am
V
55 °F 6¼ mi+ - 220°   220° 3 kt METAR EDDG 162250Z 22003KT 170V260 CAVOK 13/12 Q1019 NOSIG
12:20 am
V
57 °F 6¼ mi+ - Var   Var 2 kt METAR EDDG 162220Z VRB02KT CAVOK 14/12 Q1019 NOSIG

May 16, 2022

Time Code Weather Temp. Visibility Clouds Wind METAR/SPECI
11:50 pm
V
61 °F 6¼ mi+ - 220°   220° 4 kt METAR EDDG 162150Z 22004KT 200V260 CAVOK 16/13 Q1019 NOSIG
11:20 pm
V
59 °F 6¼ mi+ - 250°   250° 3 kt METAR EDDG 162120Z 25003KT 9999 FEW023 15/14 Q1019 NOSIG
10:50 pm
V
61 °F 6¼ mi+ - 260°   260° 4 kt METAR EDDG 162050Z 26004KT 9999 FEW019 16/15 Q1019 NOSIG
10:20 pm
V
63 °F 6¼ mi+ - Var   Var 2 kt METAR EDDG 162020Z VRB02KT 9999 FEW017 17/16 Q1019 NOSIG
9:50 pm
V
63 °F 6¼ mi+ - 270°   270° 3 kt METAR EDDG 161950Z 27003KT 250V310 9999 SCT016 17/16 Q1018 NOSIG
9:20 pm
M
64 °F 6¼ mi+ 1,800 ft 260°   260° 5 kt METAR EDDG 161920Z 26005KT 9999 FEW015 BKN018 18/16 Q1018 NOSIG
8:50 pm
V
64 °F 6¼ mi+ - 270°   270° 7 kt METAR EDDG 161850Z 27007KT 9999 SCT017 SCT044 18/16 Q1018 NOSIG
8:20 pm
V
64 °F 6¼ mi+ 3,800 ft 260°   260° 6 kt METAR EDDG 161820Z 26006KT 9999 -RA FEW017 BKN038 18/16 Q1017 NOSIG
7:50 pm
V
66 °F 6¼ mi+ 3,200 ft 270°   270° 13 kt METAR EDDG 161750Z 27013KT 9999 FEW015 BKN032 19/16 Q1017 NOSIG
7:20 pm
V
66 °F 6¼ mi+ - 240°   240° 12 kt METAR EDDG 161720Z 24012KT 9999 -SHRA SCT015 SCT040CB 19/17 Q1017 NOSIG
6:50 pm
V
68 °F 6¼ mi+ - 250°   250° 11 kt METAR EDDG 161650Z 25011KT 9999 -SHRA FEW048CB 20/17 Q1016 NOSIG
6:20 pm
V
70 °F 6¼ mi+ - 240°   240° 13 kt METAR EDDG 161620Z 24013KT 9999 -SHRA FEW060CB 21/17 Q1016 NOSIG
5:50 pm
V
72 °F 6¼ mi+ - 220°   220° 7 kt METAR EDDG 161550Z 22007KT 170V260 9999 -SHRA FEW060CB 22/14 Q1015 NOSIG
5:20 pm
V
72 °F 6¼ mi+ - 190°   190° 4 kt METAR EDDG 161520Z 19004KT 160V220 9999 -SHRA FEW060CB 22/15 Q1015 NOSIG
4:50 pm
V
73 °F 6¼ mi+ - 180°   180° 4 kt METAR EDDG 161450Z 18004KT 150V210 9999 -SHRA FEW060CB 23/14 Q1015 NOSIG
4:20 pm
V
73 °F 6¼ mi+ - Var   Var 2 kt METAR EDDG 161420Z VRB02KT CAVOK 23/13 Q1015 NOSIG
3:50 pm
V
73 °F 6¼ mi+ - 210°   210° 3 kt METAR EDDG 161350Z 21003KT 140V280 CAVOK 23/13 Q1015 NOSIG
3:20 pm
V
73 °F 6¼ mi+ - 230°   230° 4 kt METAR EDDG 161320Z 23004KT 170V270 9999 FEW060CB 23/13 Q1015 NOSIG
2:50 pm
V
73 °F 6¼ mi+ - 230°   230° 6 kt METAR EDDG 161250Z 23006KT 200V260 9999 -SHRA FEW060CB 23/13 Q1015 NOSIG
2:20 pm
V
75 °F 6¼ mi+ - 240°   240° 6 kt METAR EDDG 161220Z 24006KT 180V270 9999 FEW060CB 24/12 Q1015 NOSIG
1:50 pm
V
75 °F 6¼ mi+ - 220°   220° 5 kt METAR EDDG 161150Z 22005KT 170V270 9999 FEW060CB 24/12 Q1015 NOSIG
1:20 pm
V
75 °F 6¼ mi+ - 200°   200° 5 kt METAR EDDG 161120Z 20005KT 150V230 9999 -SHRA FEW060CB 24/11 Q1015 NOSIG
12:50 pm
V
75 °F 6¼ mi+ - 170°   170° 4 kt METAR EDDG 161050Z 17004KT 130V220 CAVOK 24/12 Q1015 NOSIG
12:20 pm
V
75 °F 6¼ mi+ - 180°   180° 4 kt METAR EDDG 161020Z 18004KT 110V230 CAVOK 24/11 Q1015 NOSIG
11:50 am
V
73 °F 6¼ mi+ - 170°   170° 6 kt METAR EDDG 160950Z 17006KT 140V230 CAVOK 23/10 Q1015 NOSIG
11:20 am
V
72 °F 6¼ mi+ - 180°   180° 7 kt METAR EDDG 160920Z 18007KT 140V220 CAVOK 22/11 Q1015 NOSIG
10:50 am
V
72 °F 6¼ mi+ - 160°   160° 6 kt METAR EDDG 160850Z 16006KT 130V190 CAVOK 22/11 Q1015 NOSIG
10:20 am
V
72 °F 6¼ mi+ - 100°   100° 5 kt METAR EDDG 160820Z 10005KT 040V160 CAVOK 22/11 Q1014 NOSIG
9:50 am
V
72 °F 6¼ mi+ - 130°   130° 5 kt METAR EDDG 160750Z 13005KT 030V190 CAVOK 22/11 Q1014 NOSIG
9:20 am
V
70 °F 6¼ mi+ - 120°   120° 6 kt METAR EDDG 160720Z 12006KT 060V160 CAVOK 21/10 Q1014 NOSIG
8:50 am
V
66 °F 6¼ mi+ - 100°   100° 6 kt METAR EDDG 160650Z 10006KT 030V170 CAVOK 19/09 Q1014 NOSIG
8:20 am
V
66 °F 6¼ mi+ - 110°   110° 4 kt METAR EDDG 160620Z 11004KT 010V180 CAVOK 19/09 Q1014 NOSIG
7:50 am
V
64 °F 6¼ mi+ - Var   Var 3 kt METAR EDDG 160550Z VRB03KT CAVOK 18/09 Q1014 NOSIG
7:20 am
V
63 °F 6¼ mi+ - Var   Var 3 kt METAR EDDG 160520Z VRB03KT CAVOK 17/08 Q1014 NOSIG
6:50 am
V
61 °F 6¼ mi+ - Var   Var 5 kt METAR EDDG 160450Z VRB05KT CAVOK 16/08 Q1014 NOSIG
6:20 am
V
59 °F 6¼ mi+ - Var   Var 4 kt METAR EDDG 160420Z VRB04KT CAVOK 15/08 Q1014 NOSIG
5:50 am
V
59 °F 6¼ mi+ - 090°   090° 4 kt METAR EDDG 160350Z 09004KT 030V170 CAVOK 15/08 Q1014 NOSIG
5:20 am
V
59 °F 6¼ mi+ - Var   Var 4 kt METAR EDDG 160320Z VRB04KT CAVOK 15/08 Q1015 NOSIG
4:50 am
V
59 °F 6¼ mi+ - 100°   100° 4 kt METAR EDDG 160250Z 10004KT 050V200 CAVOK 15/08 Q1015 NOSIG
4:20 am
V
59 °F 6¼ mi+ - 090°   090° 5 kt METAR EDDG 160220Z 09005KT 030V170 CAVOK 15/08 Q1015 NOSIG
3:50 am
V
59 °F 6¼ mi+ - 100°   100° 4 kt METAR EDDG 160150Z 10004KT 040V190 CAVOK 15/09 Q1015 NOSIG
3:20 am
V
61 °F 6¼ mi+ - Var   Var 4 kt METAR EDDG 160120Z VRB04KT CAVOK 16/09 Q1016 NOSIG
2:50 am
V
61 °F 6¼ mi+ - Var   Var 4 kt METAR EDDG 160050Z VRB04KT CAVOK 16/09 Q1016 NOSIG
2:20 am
V
61 °F 6¼ mi+ - Var   Var 4 kt METAR EDDG 160020Z VRB04KT CAVOK 16/09 Q1016 NOSIG
1:50 am
V
61 °F 6¼ mi+ - Var   Var 3 kt METAR EDDG 152350Z VRB03KT CAVOK 16/09 Q1016 NOSIG
1:20 am
V
61 °F 6¼ mi+ - 090°   090° 3 kt METAR EDDG 152320Z 09003KT 030V160 CAVOK 16/09 Q1017 NOSIG
12:50 am
V
61 °F 6¼ mi+ - 080°   080° 3 kt METAR EDDG 152250Z 08003KT 030V140 CAVOK 16/09 Q1017 NOSIG
12:20 am
V
63 °F 6¼ mi+ - 080°   080° 3 kt METAR EDDG 152220Z 08003KT 030V150 CAVOK 17/09 Q1017 NOSIG

May 15, 2022

Time Code Weather Temp. Visibility Clouds Wind METAR/SPECI
11:50 pm
V
63 °F 6¼ mi+ - 070°   070° 4 kt METAR EDDG 152150Z 07004KT 020V110 CAVOK 17/09 Q1017 NOSIG
11:20 pm
V
64 °F 6¼ mi+ - 070°   070° 4 kt METAR EDDG 152120Z 07004KT 020V110 CAVOK 18/09 Q1017 NOSIG
10:50 pm
V
64 °F 6¼ mi+ - 060°   060° 4 kt METAR EDDG 152050Z 06004KT 020V110 CAVOK 18/09 Q1017 NOSIG
10:20 pm
V
64 °F 6¼ mi+ - 060°   060° 3 kt METAR EDDG 152020Z 06003KT 030V100 CAVOK 18/09 Q1017 NOSIG
9:50 pm
V
66 °F 6¼ mi+ - 060°   060° 4 kt METAR EDDG 151950Z 06004KT 020V120 CAVOK 19/09 Q1017 NOSIG
9:20 pm
V
68 °F 6¼ mi+ - 060°   060° 4 kt METAR EDDG 151920Z 06004KT 010V110 CAVOK 20/09 Q1016 NOSIG
8:50 pm
V
70 °F 6¼ mi+ - 060°   060° 4 kt METAR EDDG 151850Z 06004KT 010V110 CAVOK 21/08 Q1016 NOSIG
8:20 pm
V
72 °F 6¼ mi+ - 070°   070° 5 kt METAR EDDG 151820Z 07005KT 330V130 CAVOK 22/08 Q1017 NOSIG
7:50 pm
V
73 °F 6¼ mi+ - Var   Var 6 kt METAR EDDG 151750Z VRB06KT CAVOK 23/08 Q1017 NOSIG
7:20 pm
V
75 °F 6¼ mi+ - 070°   070° 5 kt METAR EDDG 151720Z 07005KT 010V150 CAVOK 24/07 Q1017 NOSIG
6:50 pm
V
75 °F 6¼ mi+ - 060°   060° 6 kt METAR EDDG 151650Z 06006KT 010V120 CAVOK 24/06 Q1017 NOSIG
6:20 pm
V
75 °F 6¼ mi+ - Var   Var 6 kt METAR EDDG 151620Z VRB06KT CAVOK 24/07 Q1017 NOSIG
5:50 pm
V
75 °F 6¼ mi+ - 060°   060° 6 kt METAR EDDG 151550Z 06006KT 360V130 CAVOK 24/07 Q1017 NOSIG
5:20 pm
V
75 °F 6¼ mi+ - Var   Var 6 kt METAR EDDG 151520Z VRB06KT CAVOK 24/07 Q1018 NOSIG
4:50 pm
V
75 °F 6¼ mi+ - 080°   080° 6 kt METAR EDDG 151450Z 08006KT 020V170 CAVOK 24/07 Q1018 NOSIG
4:20 pm
V
77 °F 6¼ mi+ - Var   Var 5 kt METAR EDDG 151420Z VRB05KT CAVOK 25/08 Q1018 NOSIG
3:50 pm
V
75 °F 6¼ mi+ - Var   Var 6 kt METAR EDDG 151350Z VRB06KT CAVOK 24/07 Q1019 NOSIG
3:20 pm
V
73 °F 6¼ mi+ - Var   Var 6 kt METAR EDDG 151320Z VRB06KT CAVOK 23/06 Q1019 NOSIG
2:50 pm
V
73 °F 6¼ mi+ - Var   Var 6 kt METAR EDDG 151250Z VRB06KT CAVOK 23/07 Q1019 NOSIG
2:20 pm
V
73 °F 6¼ mi+ - Var   Var 7 kt METAR EDDG 151220Z VRB07KT CAVOK 23/08 Q1019 NOSIG
1:50 pm
V
73 °F 6¼ mi+ - Var   Var 6 kt METAR EDDG 151150Z VRB06KT CAVOK 23/08 Q1020 NOSIG
1:20 pm
V
73 °F 6¼ mi+ - Var   Var 5 kt METAR EDDG 151120Z VRB05KT CAVOK 23/07 Q1020 NOSIG
12:50 pm
V
73 °F 6¼ mi+ - Var   Var 5 kt METAR EDDG 151050Z VRB05KT CAVOK 23/07 Q1020 NOSIG
12:20 pm
V
73 °F 6¼ mi+ - Var   Var 4 kt METAR EDDG 151020Z VRB04KT CAVOK 23/08 Q1020 NOSIG
11:50 am
V
72 °F 6¼ mi+ - Var   Var 5 kt METAR EDDG 150950Z VRB05KT CAVOK 22/08 Q1021 NOSIG
11:20 am
V
70 °F 6¼ mi+ - Var   Var 5 kt METAR EDDG 150920Z VRB05KT CAVOK 21/07 Q1021 NOSIG
10:50 am
V
70 °F 6¼ mi+ - Var   Var 5 kt METAR EDDG 150850Z VRB05KT CAVOK 21/08 Q1021 NOSIG
10:20 am
V
68 °F 6¼ mi+ - Var   Var 4 kt METAR EDDG 150820Z VRB04KT CAVOK 20/09 Q1021 NOSIG
9:50 am
V
66 °F 6¼ mi+ - 130°   130° 4 kt METAR EDDG 150750Z 13004KT 020V180 CAVOK 19/09 Q1021 NOSIG
9:20 am
V
64 °F 6¼ mi+ - 110°   110° 4 kt METAR EDDG 150720Z 11004KT 040V210 CAVOK 18/09 Q1021 NOSIG
8:50 am
V
63 °F 6¼ mi+ - 110°   110° 4 kt METAR EDDG 150650Z 11004KT 040V170 CAVOK 17/09 Q1021 NOSIG
8:20 am
V
61 °F 6¼ mi+ - 090°   090° 4 kt METAR EDDG 150620Z 09004KT 030V160 CAVOK 16/09 Q1021 NOSIG
7:50 am
V
57 °F 6¼ mi+ - 050°   050° 4 kt METAR EDDG 150550Z 05004KT 010V100 CAVOK 14/09 Q1021 NOSIG
7:20 am
V
54 °F 6¼ mi+ - 050°   050° 3 kt METAR EDDG 150520Z 05003KT CAVOK 12/08 Q1021 NOSIG
Older data

Download our app

Easy access to all aviation weather on your mobile phone and tablet.
With many features not available on the website, like offline support and a personal airport list.